sensor_id;sensor_type;location;lat;lon;timestamp;P1;durP1;ratioP1;P2;durP2;ratioP2
25952;SDS011;13750;50.804;8.764;2023-04-01T00:00:15;1.10;;;0.40;;
25952;SDS011;13750;50.804;8.764;2023-04-01T00:02:41;1.17;;;0.40;;
25952;SDS011;13750;50.804;8.764;2023-04-01T00:05:06;2.40;;;1.33;;
25952;SDS011;13750;50.804;8.764;2023-04-01T00:07:32;1.43;;;0.50;;
25952;SDS011;13750;50.804;8.764;2023-04-01T00:09:58;0.80;;;0.47;;
25952;SDS011;13750;50.804;8.764;2023-04-01T00:12:24;0.67;;;0.40;;
25952;SDS011;13750;50.804;8.764;2023-04-01T00:14:50;1.17;;;0.37;;
25952;SDS011;13750;50.804;8.764;2023-04-01T00:17:16;1.20;;;0.47;;
25952;SDS011;13750;50.804;8.764;2023-04-01T00:19:41;1.10;;;0.33;;
25952;SDS011;13750;50.804;8.764;2023-04-01T00:22:07;0.93;;;0.50;;
25952;SDS011;13750;50.804;8.764;2023-04-01T00:24:36;0.60;;;0.38;;
25952;SDS011;13750;50.804;8.764;2023-04-01T00:27:04;1.45;;;0.47;;
25952;SDS011;13750;50.804;8.764;2023-04-01T00:29:30;0.83;;;0.60;;
25952;SDS011;13750;50.804;8.764;2023-04-01T00:31:56;0.80;;;0.50;;
25952;SDS011;13750;50.804;8.764;2023-04-01T00:34:22;1.55;;;0.68;;
25952;SDS011;13750;50.804;8.764;2023-04-01T00:36:49;1.92;;;0.63;;
25952;SDS011;13750;50.804;8.764;2023-04-01T00:39:15;2.33;;;0.70;;
25952;SDS011;13750;50.804;8.764;2023-04-01T00:41:41;1.83;;;0.60;;
25952;SDS011;13750;50.804;8.764;2023-04-01T00:44:24;1.97;;;0.70;;
25952;SDS011;13750;50.804;8.764;2023-04-01T00:46:51;2.05;;;0.73;;
25952;SDS011;13750;50.804;8.764;2023-04-01T00:49:17;0.80;;;0.50;;
25952;SDS011;13750;50.804;8.764;2023-04-01T00:51:47;1.45;;;0.60;;
25952;SDS011;13750;50.804;8.764;2023-04-01T00:54:15;0.70;;;0.60;;
25952;SDS011;13750;50.804;8.764;2023-04-01T00:56:45;1.42;;;0.65;;
25952;SDS011;13750;50.804;8.764;2023-04-01T00:59:18;1.73;;;0.60;;
25952;SDS011;13750;50.804;8.764;2023-04-01T01:01:49;0.38;;;0.38;;
25952;SDS011;13750;50.804;8.764;2023-04-01T01:04:22;0.77;;;0.43;;
25952;SDS011;13750;50.804;8.764;2023-04-01T01:09:56;1.38;;;0.50;;
25952;SDS011;13750;50.804;8.764;2023-04-01T01:15:19;1.70;;;1.00;;
25952;SDS011;13750;50.804;8.764;2023-04-01T01:23:32;0.93;;;0.50;;
25952;SDS011;13750;50.804;8.764;2023-04-01T01:26:19;0.50;;;0.50;;
25952;SDS011;13750;50.804;8.764;2023-04-01T01:34:22;1.03;;;0.53;;
25952;SDS011;13750;50.804;8.764;2023-04-01T01:36:50;1.08;;;0.70;;
25952;SDS011;13750;50.804;8.764;2023-04-01T01:39:23;1.50;;;0.50;;
25952;SDS011;13750;50.804;8.764;2023-04-01T01:41:55;0.82;;;0.60;;
25952;SDS011;13750;50.804;8.764;2023-04-01T01:44:22;1.42;;;0.55;;
25952;SDS011;13750;50.804;8.764;2023-04-01T01:46:50;0.52;;;0.35;;
25952;SDS011;13750;50.804;8.764;2023-04-01T01:49:16;0.90;;;0.40;;
25952;SDS011;13750;50.804;8.764;2023-04-01T01:51:43;0.98;;;0.40;;
25952;SDS011;13750;50.804;8.764;2023-04-01T01:54:13;1.67;;;0.50;;
25952;SDS011;13750;50.804;8.764;2023-04-01T01:56:39;6.13;;;0.50;;
25952;SDS011;13750;50.804;8.764;2023-04-01T01:59:08;0.60;;;0.30;;
25952;SDS011;13750;50.804;8.764;2023-04-01T02:01:37;0.40;;;0.30;;
25952;SDS011;13750;50.804;8.764;2023-04-01T02:04:05;0.50;;;0.25;;
25952;SDS011;13750;50.804;8.764;2023-04-01T02:06:32;0.85;;;0.52;;
25952;SDS011;13750;50.804;8.764;2023-04-01T02:09:03;1.25;;;0.75;;
25952;SDS011;13750;50.804;8.764;2023-04-01T02:11:31;1.15;;;0.68;;
25952;SDS011;13750;50.804;8.764;2023-04-01T02:14:05;0.90;;;0.30;;
25952;SDS011;13750;50.804;8.764;2023-04-01T02:16:37;1.17;;;0.35;;
25952;SDS011;13750;50.804;8.764;2023-04-01T02:19:08;1.70;;;0.40;;
25952;SDS011;13750;50.804;8.764;2023-04-01T02:21:37;1.00;;;0.30;;
25952;SDS011;13750;50.804;8.764;2023-04-01T02:24:07;0.85;;;0.47;;
25952;SDS011;13750;50.804;8.764;2023-04-01T02:26:35;0.47;;;0.38;;
25952;SDS011;13750;50.804;8.764;2023-04-01T02:29:01;0.93;;;0.30;;
25952;SDS011;13750;50.804;8.764;2023-04-01T02:31:29;0.65;;;0.30;;
25952;SDS011;13750;50.804;8.764;2023-04-01T02:33:57;1.00;;;0.30;;
25952;SDS011;13750;50.804;8.764;2023-04-01T02:36:23;0.77;;;0.35;;
25952;SDS011;13750;50.804;8.764;2023-04-01T02:38:49;0.90;;;0.30;;
25952;SDS011;13750;50.804;8.764;2023-04-01T02:41:20;0.82;;;0.30;;
25952;SDS011;13750;50.804;8.764;2023-04-01T02:43:46;0.93;;;0.30;;
25952;SDS011;13750;50.804;8.764;2023-04-01T02:46:11;0.30;;;0.20;;
25952;SDS011;13750;50.804;8.764;2023-04-01T02:48:37;0.63;;;0.30;;
25952;SDS011;13750;50.804;8.764;2023-04-01T02:51:03;1.13;;;0.20;;
25952;SDS011;13750;50.804;8.764;2023-04-01T02:53:28;0.40;;;0.20;;
25952;SDS011;13750;50.804;8.764;2023-04-01T02:55:54;1.10;;;0.40;;
25952;SDS011;13750;50.804;8.764;2023-04-01T02:58:20;1.85;;;0.70;;
25952;SDS011;13750;50.804;8.764;2023-04-01T03:00:46;0.70;;;0.50;;
25952;SDS011;13750;50.804;8.764;2023-04-01T03:03:12;0.20;;;0.20;;
25952;SDS011;13750;50.804;8.764;2023-04-01T03:05:38;0.55;;;0.30;;
25952;SDS011;13750;50.804;8.764;2023-04-01T03:08:04;0.43;;;0.23;;
25952;SDS011;13750;50.804;8.764;2023-04-01T03:10:31;1.00;;;0.40;;
25952;SDS011;13750;50.804;8.764;2023-04-01T03:12:56;0.63;;;0.30;;
25952;SDS011;13750;50.804;8.764;2023-04-01T03:15:22;1.33;;;0.30;;
25952;SDS011;13750;50.804;8.764;2023-04-01T03:17:50;0.67;;;0.33;;
25952;SDS011;13750;50.804;8.764;2023-04-01T03:20:16;0.70;;;0.20;;
25952;SDS011;13750;50.804;8.764;2023-04-01T03:22:41;1.00;;;0.43;;
25952;SDS011;13750;50.804;8.764;2023-04-01T03:25:07;0.77;;;0.30;;
25952;SDS011;13750;50.804;8.764;2023-04-01T03:27:34;0.30;;;0.20;;
25952;SDS011;13750;50.804;8.764;2023-04-01T03:30:01;0.30;;;0.20;;
25952;SDS011;13750;50.804;8.764;2023-04-01T03:32:27;0.28;;;0.22;;
25952;SDS011;13750;50.804;8.764;2023-04-01T03:34:53;0.27;;;0.17;;
25952;SDS011;13750;50.804;8.764;2023-04-01T03:37:19;0.83;;;0.37;;
25952;SDS011;13750;50.804;8.764;2023-04-01T03:39:44;1.23;;;0.47;;
25952;SDS011;13750;50.804;8.764;2023-04-01T03:42:11;0.60;;;0.30;;
25952;SDS011;13750;50.804;8.764;2023-04-01T03:44:39;1.33;;;0.50;;
25952;SDS011;13750;50.804;8.764;2023-04-01T03:47:04;1.53;;;0.50;;
25952;SDS011;13750;50.804;8.764;2023-04-01T03:49:30;1.43;;;0.33;;
25952;SDS011;13750;50.804;8.764;2023-04-01T03:51:57;0.25;;;0.20;;
25952;SDS011;13750;50.804;8.764;2023-04-01T03:54:23;0.95;;;0.55;;
25952;SDS011;13750;50.804;8.764;2023-04-01T03:56:49;0.63;;;0.30;;
25952;SDS011;13750;50.804;8.764;2023-04-01T03:59:15;1.43;;;0.23;;
25952;SDS011;13750;50.804;8.764;2023-04-01T04:01:40;0.60;;;0.30;;
25952;SDS011;13750;50.804;8.764;2023-04-01T04:04:06;0.23;;;0.23;;
25952;SDS011;13750;50.804;8.764;2023-04-01T04:06:32;0.30;;;0.20;;
25952;SDS011;13750;50.804;8.764;2023-04-01T04:08:58;0.30;;;0.20;;
25952;SDS011;13750;50.804;8.764;2023-04-01T04:11:23;0.50;;;0.20;;
25952;SDS011;13750;50.804;8.764;2023-04-01T04:13:49;0.10;;;0.10;;
25952;SDS011;13750;50.804;8.764;2023-04-01T04:16:15;0.37;;;0.20;;
25952;SDS011;13750;50.804;8.764;2023-04-01T04:21:10;0.20;;;0.20;;
25952;SDS011;13750;50.804;8.764;2023-04-01T04:23:37;1.42;;;0.85;;
25952;SDS011;13750;50.804;8.764;2023-04-01T04:26:04;0.33;;;0.30;;
25952;SDS011;13750;50.804;8.764;2023-04-01T04:28:31;1.77;;;0.40;;
25952;SDS011;13750;50.804;8.764;2023-04-01T04:30:57;0.25;;;0.20;;
25952;SDS011;13750;50.804;8.764;2023-04-01T04:33:31;1.02;;;0.30;;
25952;SDS011;13750;50.804;8.764;2023-04-01T04:35:59;0.75;;;0.20;;
25952;SDS011;13750;50.804;8.764;2023-04-01T04:38:26;0.70;;;0.40;;
25952;SDS011;13750;50.804;8.764;2023-04-01T04:40:51;0.37;;;0.30;;
25952;SDS011;13750;50.804;8.764;2023-04-01T04:43:18;2.37;;;0.70;;
25952;SDS011;13750;50.804;8.764;2023-04-01T04:45:44;1.75;;;0.47;;
25952;SDS011;13750;50.804;8.764;2023-04-01T04:48:14;1.23;;;0.60;;
25952;SDS011;13750;50.804;8.764;2023-04-01T04:50:45;0.88;;;0.40;;
25952;SDS011;13750;50.804;8.764;2023-04-01T04:53:12;0.55;;;0.50;;
25952;SDS011;13750;50.804;8.764;2023-04-01T04:55:42;1.03;;;0.40;;
25952;SDS011;13750;50.804;8.764;2023-04-01T04:58:12;0.80;;;0.50;;
25952;SDS011;13750;50.804;8.764;2023-04-01T05:00:37;0.73;;;0.40;;
25952;SDS011;13750;50.804;8.764;2023-04-01T05:03:03;1.27;;;0.40;;
25952;SDS011;13750;50.804;8.764;2023-04-01T05:05:29;0.70;;;0.40;;
25952;SDS011;13750;50.804;8.764;2023-04-01T05:07:54;0.30;;;0.30;;
25952;SDS011;13750;50.804;8.764;2023-04-01T05:10:20;0.47;;;0.30;;
25952;SDS011;13750;50.804;8.764;2023-04-01T05:12:46;1.13;;;0.30;;
25952;SDS011;13750;50.804;8.764;2023-04-01T05:15:11;0.20;;;0.20;;
25952;SDS011;13750;50.804;8.764;2023-04-01T05:17:37;0.90;;;0.40;;
25952;SDS011;13750;50.804;8.764;2023-04-01T05:20:02;2.03;;;0.40;;
25952;SDS011;13750;50.804;8.764;2023-04-01T05:22:29;0.75;;;0.32;;
25952;SDS011;13750;50.804;8.764;2023-04-01T05:24:54;0.63;;;0.30;;
25952;SDS011;13750;50.804;8.764;2023-04-01T05:27:20;0.77;;;0.27;;
25952;SDS011;13750;50.804;8.764;2023-04-01T05:29:48;0.40;;;0.40;;
25952;SDS011;13750;50.804;8.764;2023-04-01T05:32:14;0.90;;;0.40;;
25952;SDS011;13750;50.804;8.764;2023-04-01T05:34:40;0.60;;;0.40;;
25952;SDS011;13750;50.804;8.764;2023-04-01T05:37:06;0.90;;;0.37;;
25952;SDS011;13750;50.804;8.764;2023-04-01T05:39:35;0.43;;;0.30;;
25952;SDS011;13750;50.804;8.764;2023-04-01T05:42:02;0.80;;;0.30;;
25952;SDS011;13750;50.804;8.764;2023-04-01T05:44:30;0.70;;;0.38;;
25952;SDS011;13750;50.804;8.764;2023-04-01T05:46:55;1.33;;;0.30;;
25952;SDS011;13750;50.804;8.764;2023-04-01T05:49:21;0.23;;;0.20;;
25952;SDS011;13750;50.804;8.764;2023-04-01T05:51:46;0.53;;;0.30;;
25952;SDS011;13750;50.804;8.764;2023-04-01T05:54:12;1.33;;;0.40;;
25952;SDS011;13750;50.804;8.764;2023-04-01T05:56:38;1.33;;;0.50;;
25952;SDS011;13750;50.804;8.764;2023-04-01T05:59:03;0.70;;;0.30;;
25952;SDS011;13750;50.804;8.764;2023-04-01T06:01:29;0.10;;;0.10;;
25952;SDS011;13750;50.804;8.764;2023-04-01T06:03:55;1.50;;;0.30;;
25952;SDS011;13750;50.804;8.764;2023-04-01T06:06:24;0.60;;;0.30;;
25952;SDS011;13750;50.804;8.764;2023-04-01T06:08:52;0.40;;;0.30;;
25952;SDS011;13750;50.804;8.764;2023-04-01T06:11:25;0.47;;;0.30;;
25952;SDS011;13750;50.804;8.764;2023-04-01T06:16:39;0.43;;;0.20;;
25952;SDS011;13750;50.804;8.764;2023-04-01T06:30:03;0.25;;;0.20;;
25952;SDS011;13750;50.804;8.764;2023-04-01T06:35:54;1.08;;;0.63;;
25952;SDS011;13750;50.804;8.764;2023-04-01T06:38:37;0.30;;;0.25;;
25952;SDS011;13750;50.804;8.764;2023-04-01T06:57:02;0.57;;;0.35;;
25952;SDS011;13750;50.804;8.764;2023-04-01T06:59:44;0.57;;;0.30;;
25952;SDS011;13750;50.804;8.764;2023-04-01T07:04:48;0.52;;;0.38;;
25952;SDS011;13750;50.804;8.764;2023-04-01T07:07:24;0.45;;;0.38;;
25952;SDS011;13750;50.804;8.764;2023-04-01T07:10:06;0.20;;;0.20;;
25952;SDS011;13750;50.804;8.764;2023-04-01T07:12:50;0.22;;;0.22;;
25952;SDS011;13750;50.804;8.764;2023-04-01T07:17:48;0.77;;;0.20;;
25952;SDS011;13750;50.804;8.764;2023-04-01T07:22:53;0.30;;;0.30;;
25952;SDS011;13750;50.804;8.764;2023-04-01T07:25:27;0.65;;;0.30;;
25952;SDS011;13750;50.804;8.764;2023-04-01T07:28:03;0.30;;;0.20;;
25952;SDS011;13750;50.804;8.764;2023-04-01T07:30:33;0.25;;;0.25;;
25952;SDS011;13750;50.804;8.764;2023-04-01T07:36:06;0.20;;;0.20;;
25952;SDS011;13750;50.804;8.764;2023-04-01T07:38:47;0.75;;;0.32;;
25952;SDS011;13750;50.804;8.764;2023-04-01T07:44:18;0.40;;;0.40;;
25952;SDS011;13750;50.804;8.764;2023-04-01T07:52:10;0.90;;;0.47;;
25952;SDS011;13750;50.804;8.764;2023-04-01T07:54:46;1.23;;;0.60;;
25952;SDS011;13750;50.804;8.764;2023-04-01T07:57:19;0.70;;;0.40;;
25952;SDS011;13750;50.804;8.764;2023-04-01T08:02:43;1.65;;;0.40;;
25952;SDS011;13750;50.804;8.764;2023-04-01T08:05:19;0.38;;;0.30;;
25952;SDS011;13750;50.804;8.764;2023-04-01T08:13:24;0.45;;;0.30;;
25952;SDS011;13750;50.804;8.764;2023-04-01T08:16:19;0.43;;;0.22;;
25952;SDS011;13750;50.804;8.764;2023-04-01T08:21:30;0.20;;;0.20;;
25952;SDS011;13750;50.804;8.764;2023-04-01T08:27:06;0.30;;;0.30;;
25952;SDS011;13750;50.804;8.764;2023-04-01T08:29:44;0.32;;;0.25;;
25952;SDS011;13750;50.804;8.764;2023-04-01T08:32:22;0.45;;;0.22;;
25952;SDS011;13750;50.804;8.764;2023-04-01T08:37:50;1.02;;;0.30;;
25952;SDS011;13750;50.804;8.764;2023-04-01T08:45:54;0.32;;;0.20;;
25952;SDS011;13750;50.804;8.764;2023-04-01T08:51:42;0.57;;;0.22;;
25952;SDS011;13750;50.804;8.764;2023-04-01T09:09:14;0.25;;;0.25;;
25952;SDS011;13750;50.804;8.764;2023-04-01T09:23:25;0.30;;;0.20;;
25952;SDS011;13750;50.804;8.764;2023-04-01T09:28:53;0.25;;;0.25;;
25952;SDS011;13750;50.804;8.764;2023-04-01T09:34:44;0.40;;;0.30;;
25952;SDS011;13750;50.804;8.764;2023-04-01T09:37:19;0.20;;;0.20;;
25952;SDS011;13750;50.804;8.764;2023-04-01T09:39:56;0.63;;;0.30;;
25952;SDS011;13750;50.804;8.764;2023-04-01T09:49:09;0.60;;;0.40;;
25952;SDS011;13750;50.804;8.764;2023-04-01T09:52:01;0.68;;;0.43;;
25952;SDS011;13750;50.804;8.764;2023-04-01T10:00:55;0.65;;;0.40;;
25952;SDS011;13750;50.804;8.764;2023-04-01T10:12:31;0.30;;;0.30;;
25952;SDS011;13750;50.804;8.764;2023-04-01T10:17:52;0.30;;;0.30;;
25952;SDS011;13750;50.804;8.764;2023-04-01T10:26:32;0.20;;;0.20;;
25952;SDS011;13750;50.804;8.764;2023-04-01T10:35:36;0.32;;;0.20;;
25952;SDS011;13750;50.804;8.764;2023-04-01T10:38:34;0.65;;;0.30;;
25952;SDS011;13750;50.804;8.764;2023-04-01T10:41:33;0.20;;;0.20;;
25952;SDS011;13750;50.804;8.764;2023-04-01T10:46:57;0.80;;;0.35;;
25952;SDS011;13750;50.804;8.764;2023-04-01T10:50:10;0.63;;;0.20;;
25952;SDS011;13750;50.804;8.764;2023-04-01T10:58:55;0.50;;;0.30;;
25952;SDS011;13750;50.804;8.764;2023-04-01T11:13:59;0.30;;;0.30;;
25952;SDS011;13750;50.804;8.764;2023-04-01T11:22:51;0.47;;;0.32;;
25952;SDS011;13750;50.804;8.764;2023-04-01T11:25:42;0.25;;;0.25;;
25952;SDS011;13750;50.804;8.764;2023-04-01T11:33:53;0.30;;;0.28;;
25952;SDS011;13750;50.804;8.764;2023-04-01T11:36:47;0.15;;;0.15;;
25952;SDS011;13750;50.804;8.764;2023-04-01T11:39:24;0.30;;;0.20;;
25952;SDS011;13750;50.804;8.764;2023-04-01T11:42:17;0.20;;;0.20;;
25952;SDS011;13750;50.804;8.764;2023-04-01T11:45:25;0.28;;;0.28;;
25952;SDS011;13750;50.804;8.764;2023-04-01T11:51:09;0.10;;;0.10;;
25952;SDS011;13750;50.804;8.764;2023-04-01T11:53:26;0.20;;;0.20;;
25952;SDS011;13750;50.804;8.764;2023-04-01T12:01:29;0.20;;;0.20;;
25952;SDS011;13750;50.804;8.764;2023-04-01T12:04:26;0.17;;;0.13;;
25952;SDS011;13750;50.804;8.764;2023-04-01T12:07:24;0.30;;;0.30;;
25952;SDS011;13750;50.804;8.764;2023-04-01T12:21:37;1.08;;;0.77;;
25952;SDS011;13750;50.804;8.764;2023-04-01T12:28:01;0.85;;;0.50;;
25952;SDS011;13750;50.804;8.764;2023-04-01T12:33:08;0.32;;;0.32;;
25952;SDS011;13750;50.804;8.764;2023-04-01T12:39:28;0.40;;;0.30;;
25952;SDS011;13750;50.804;8.764;2023-04-01T12:42:16;0.32;;;0.30;;
25952;SDS011;13750;50.804;8.764;2023-04-01T12:52:54;0.28;;;0.28;;
25952;SDS011;13750;50.804;8.764;2023-04-01T12:55:46;0.20;;;0.20;;
25952;SDS011;13750;50.804;8.764;2023-04-01T13:07:14;0.30;;;0.30;;
25952;SDS011;13750;50.804;8.764;2023-04-01T13:21:08;0.20;;;0.20;;
25952;SDS011;13750;50.804;8.764;2023-04-01T13:24:00;0.30;;;0.30;;
25952;SDS011;13750;50.804;8.764;2023-04-01T13:26:53;0.20;;;0.20;;
25952;SDS011;13750;50.804;8.764;2023-04-01T13:42:49;0.25;;;0.22;;
25952;SDS011;13750;50.804;8.764;2023-04-01T13:45:22;0.30;;;0.20;;
25952;SDS011;13750;50.804;8.764;2023-04-01T13:51:06;0.28;;;0.28;;
25952;SDS011;13750;50.804;8.764;2023-04-01T13:56:44;0.40;;;0.20;;
25952;SDS011;13750;50.804;8.764;2023-04-01T14:04:50;0.20;;;0.20;;
25952;SDS011;13750;50.804;8.764;2023-04-01T14:12:47;0.20;;;0.20;;
25952;SDS011;13750;50.804;8.764;2023-04-01T14:18:40;0.20;;;0.20;;
25952;SDS011;13750;50.804;8.764;2023-04-01T14:21:33;0.25;;;0.25;;
25952;SDS011;13750;50.804;8.764;2023-04-01T14:27:03;0.30;;;0.30;;
25952;SDS011;13750;50.804;8.764;2023-04-01T14:38:35;0.20;;;0.20;;
25952;SDS011;13750;50.804;8.764;2023-04-01T14:49:20;0.28;;;0.28;;
25952;SDS011;13750;50.804;8.764;2023-04-01T15:31:29;0.30;;;0.30;;
25952;SDS011;13750;50.804;8.764;2023-04-01T15:43:00;0.30;;;0.30;;
25952;SDS011;13750;50.804;8.764;2023-04-01T15:48:55;0.40;;;0.40;;
25952;SDS011;13750;50.804;8.764;2023-04-01T15:51:38;0.35;;;0.30;;
25952;SDS011;13750;50.804;8.764;2023-04-01T16:02:51;0.30;;;0.30;;
25952;SDS011;13750;50.804;8.764;2023-04-01T16:05:38;0.52;;;0.40;;
25952;SDS011;13750;50.804;8.764;2023-04-01T16:08:23;0.30;;;0.30;;
25952;SDS011;13750;50.804;8.764;2023-04-01T16:11:06;0.30;;;0.30;;
25952;SDS011;13750;50.804;8.764;2023-04-01T16:17:12;0.40;;;0.30;;
25952;SDS011;13750;50.804;8.764;2023-04-01T16:19:46;0.52;;;0.50;;
25952;SDS011;13750;50.804;8.764;2023-04-01T16:27:49;0.30;;;0.30;;
25952;SDS011;13750;50.804;8.764;2023-04-01T16:31:06;0.43;;;0.38;;
25952;SDS011;13750;50.804;8.764;2023-04-01T16:42:30;0.68;;;0.45;;
25952;SDS011;13750;50.804;8.764;2023-04-01T16:45:36;0.40;;;0.40;;
25952;SDS011;13750;50.804;8.764;2023-04-01T16:54:29;0.52;;;0.50;;
25952;SDS011;13750;50.804;8.764;2023-04-01T16:59:45;0.40;;;0.40;;
25952;SDS011;13750;50.804;8.764;2023-04-01T17:02:33;0.40;;;0.40;;
25952;SDS011;13750;50.804;8.764;2023-04-01T17:05:04;0.57;;;0.50;;
25952;SDS011;13750;50.804;8.764;2023-04-01T17:07:43;0.43;;;0.40;;
25952;SDS011;13750;50.804;8.764;2023-04-01T17:10:37;0.38;;;0.38;;
25952;SDS011;13750;50.804;8.764;2023-04-01T17:32:49;0.75;;;0.60;;
25952;SDS011;13750;50.804;8.764;2023-04-01T17:38:03;0.90;;;0.70;;
25952;SDS011;13750;50.804;8.764;2023-04-01T17:41:08;0.40;;;0.32;;
25952;SDS011;13750;50.804;8.764;2023-04-01T17:46:27;0.40;;;0.40;;
25952;SDS011;13750;50.804;8.764;2023-04-01T17:52:42;0.60;;;0.60;;
25952;SDS011;13750;50.804;8.764;2023-04-01T17:58:21;0.40;;;0.40;;
25952;SDS011;13750;50.804;8.764;2023-04-01T18:24:32;0.50;;;0.50;;
25952;SDS011;13750;50.804;8.764;2023-04-01T18:32:23;0.75;;;0.50;;
25952;SDS011;13750;50.804;8.764;2023-04-01T18:37:47;0.50;;;0.40;;
25952;SDS011;13750;50.804;8.764;2023-04-01T18:43:21;0.65;;;0.50;;
25952;SDS011;13750;50.804;8.764;2023-04-01T18:46:16;0.60;;;0.60;;
25952;SDS011;13750;50.804;8.764;2023-04-01T18:51:51;1.15;;;0.70;;
25952;SDS011;13750;50.804;8.764;2023-04-01T18:54:33;1.00;;;0.88;;
25952;SDS011;13750;50.804;8.764;2023-04-01T18:57:16;1.30;;;0.80;;
25952;SDS011;13750;50.804;8.764;2023-04-01T18:59:49;1.65;;;0.65;;
25952;SDS011;13750;50.804;8.764;2023-04-01T19:05:11;0.68;;;0.60;;
25952;SDS011;13750;50.804;8.764;2023-04-01T19:07:45;0.70;;;0.70;;
25952;SDS011;13750;50.804;8.764;2023-04-01T19:10:21;0.73;;;0.63;;
25952;SDS011;13750;50.804;8.764;2023-04-01T19:15:49;0.60;;;0.60;;
25952;SDS011;13750;50.804;8.764;2023-04-01T19:18:40;0.80;;;0.70;;
25952;SDS011;13750;50.804;8.764;2023-04-01T19:35:17;0.73;;;0.73;;
25952;SDS011;13750;50.804;8.764;2023-04-01T19:37:54;1.13;;;1.02;;
25952;SDS011;13750;50.804;8.764;2023-04-01T19:51:03;1.60;;;1.15;;
25952;SDS011;13750;50.804;8.764;2023-04-01T19:56:30;1.08;;;0.90;;
25952;SDS011;13750;50.804;8.764;2023-04-01T19:59:15;1.02;;;0.93;;
25952;SDS011;13750;50.804;8.764;2023-04-01T20:04:45;1.20;;;1.10;;
25952;SDS011;13750;50.804;8.764;2023-04-01T20:07:25;1.30;;;1.15;;
25952;SDS011;13750;50.804;8.764;2023-04-01T20:10:06;1.20;;;0.90;;
25952;SDS011;13750;50.804;8.764;2023-04-01T20:13:11;1.00;;;0.88;;
25952;SDS011;13750;50.804;8.764;2023-04-01T20:16:11;1.42;;;0.90;;
25952;SDS011;13750;50.804;8.764;2023-04-01T20:18:44;1.00;;;0.85;;
25952;SDS011;13750;50.804;8.764;2023-04-01T20:21:18;1.10;;;1.00;;
25952;SDS011;13750;50.804;8.764;2023-04-01T20:27:08;0.80;;;0.80;;
25952;SDS011;13750;50.804;8.764;2023-04-01T20:29:55;1.67;;;1.00;;
25952;SDS011;13750;50.804;8.764;2023-04-01T20:33:47;0.93;;;0.80;;
25952;SDS011;13750;50.804;8.764;2023-04-01T20:35:44;1.23;;;0.98;;
25952;SDS011;13750;50.804;8.764;2023-04-01T21:01:07;0.70;;;0.70;;
25952;SDS011;13750;50.804;8.764;2023-04-01T21:06:30;0.75;;;0.75;;
25952;SDS011;13750;50.804;8.764;2023-04-01T21:09:14;1.52;;;1.35;;
25952;SDS011;13750;50.804;8.764;2023-04-01T21:12:15;1.00;;;0.80;;
25952;SDS011;13750;50.804;8.764;2023-04-01T21:29:15;1.00;;;0.90;;
25952;SDS011;13750;50.804;8.764;2023-04-01T21:31:53;1.13;;;1.03;;
25952;SDS011;13750;50.804;8.764;2023-04-01T21:37:31;1.10;;;1.00;;
25952;SDS011;13750;50.804;8.764;2023-04-01T21:42:55;0.93;;;0.90;;
25952;SDS011;13750;50.804;8.764;2023-04-01T21:45:50;1.20;;;1.10;;
25952;SDS011;13750;50.804;8.764;2023-04-01T21:48:52;1.63;;;1.20;;
25952;SDS011;13750;50.804;8.764;2023-04-01T22:05:16;1.23;;;1.10;;
25952;SDS011;13750;50.804;8.764;2023-04-01T22:10:39;1.30;;;1.05;;
25952;SDS011;13750;50.804;8.764;2023-04-01T22:21:27;1.30;;;1.13;;
25952;SDS011;13750;50.804;8.764;2023-04-01T22:24:03;1.55;;;1.05;;
25952;SDS011;13750;50.804;8.764;2023-04-01T22:40:32;0.90;;;0.90;;
25952;SDS011;13750;50.804;8.764;2023-04-01T22:43:12;1.20;;;1.00;;
25952;SDS011;13750;50.804;8.764;2023-04-01T22:51:17;1.30;;;1.00;;
25952;SDS011;13750;50.804;8.764;2023-04-01T22:56:40;1.17;;;1.02;;
25952;SDS011;13750;50.804;8.764;2023-04-01T22:59:13;1.10;;;1.00;;
25952;SDS011;13750;50.804;8.764;2023-04-01T23:01:46;1.58;;;1.10;;
25952;SDS011;13750;50.804;8.764;2023-04-01T23:04:30;1.13;;;1.00;;
25952;SDS011;13750;50.804;8.764;2023-04-01T23:06:59;1.33;;;0.90;;
25952;SDS011;13750;50.804;8.764;2023-04-01T23:09:32;1.35;;;1.13;;
25952;SDS011;13750;50.804;8.764;2023-04-01T23:12:04;1.10;;;0.93;;
25952;SDS011;13750;50.804;8.764;2023-04-01T23:14:52;1.00;;;0.90;;
25952;SDS011;13750;50.804;8.764;2023-04-01T23:17:30;0.70;;;0.70;;
25952;SDS011;13750;50.804;8.764;2023-04-01T23:20:32;0.70;;;0.70;;
25952;SDS011;13750;50.804;8.764;2023-04-01T23:28:32;1.27;;;1.08;;
25952;SDS011;13750;50.804;8.764;2023-04-01T23:31:41;1.02;;;0.85;;
25952;SDS011;13750;50.804;8.764;2023-04-01T23:36:37;0.80;;;0.80;;
25952;SDS011;13750;50.804;8.764;2023-04-01T23:39:18;1.08;;;0.93;;
25952;SDS011;13750;50.804;8.764;2023-04-01T23:41:48;0.90;;;0.90;;
25952;SDS011;13750;50.804;8.764;2023-04-01T23:44:15;1.35;;;1.13;;
25952;SDS011;13750;50.804;8.764;2023-04-01T23:46:42;0.87;;;0.83;;
25952;SDS011;13750;50.804;8.764;2023-04-01T23:49:12;1.20;;;0.93;;
25952;SDS011;13750;50.804;8.764;2023-04-01T23:51:52;1.05;;;0.95;;
25952;SDS011;13750;50.804;8.764;2023-04-01T23:54:39;1.10;;;1.00;;
25952;SDS011;13750;50.804;8.764;2023-04-01T23:57:14;1.38;;;1.20;;
25952;SDS011;13750;50.804;8.764;2023-04-01T23:59:44;1.35;;;1.25;;
